Current Conditions
Clear
Conditions



Pressure
1009.82 (hPa) - 29.82 (inHG)
Visibility

9.7 (km) - 6.0 (miles)
   Temperature
26  °C
79°F
14  °C
Dewpoint
48  %
 Humidity
   Wind Speed
2  km/h
1  kts
1  mph
0.4  m/s
   Wind Direction
Calm
Due North
   Airport Data
LRIA
Location Ia┼či Airport 13 km (8mi)
Metar :LRIA 201830Z VRB01KT CAVOK 26/14 Q1010
Sat 20th July 18:30 pm
   Raw Metar Info
Raw METAR is the most common format in the world for the transmission of observational weather data. It is highly standardized through the International Civil Aviation Organization (ICAO), which allows it to be understood throughout most of the world.
   API Info
Data Provided by
https://www.checkwx.com/weather/
   © Info
CSS/SVG/PHP scripts were developed by weather34.com for use in the weather34 template © 2015-2024

Guide Info provided by Metar-Wikipedia